Time;durP1;ratioP1;P1;durP2;ratioP2;P2;SDS_P1;SDS_P2;PMS_P1;PMS_P2;Temp;Humidity;BMP_temperature;BMP_pressure;BME280_temperature;BME280_humidity;BME280_pressure;Samples;Min_cycle;Max_cycle;Signal;HPM_P1;HPM_P2
2021/11/21 00:02:22;;;;;;;;;;;;;;;9.17;100.00;98881.28;5040476;28;19994;-69
2021/11/21 00:04:50;;;;;;;;;;;;;;;9.59;100.00;98877.50;5023289;28;19916;-69
2021/11/21 00:07:18;;;;;;;;;;;;;;;9.78;100.00;98872.66;5042273;28;19916;-69
2021/11/21 00:09:49;;;;;;;;;;;;;;;9.45;100.00;98880.50;5040904;28;19920;-69
2021/11/21 00:12:15;;;;;;;;;;;;;;;9.36;100.00;98876.47;5040808;28;19913;-69
2021/11/21 00:14:40;;;;;;;;;;;;;;;9.51;100.00;98875.19;5020687;28;19970;-69
2021/11/21 00:17:07;;;;;;;;;;;;;;;9.20;100.00;98872.66;5040492;28;19920;-69
2021/11/21 00:19:33;;;;;;;;;;;;;;;9.55;100.00;98870.78;5040706;28;20015;-69
2021/11/21 00:21:58;;;;;;;;;;;;;;;9.52;100.00;98864.00;5041358;28;20007;-69
2021/11/21 00:24:23;;;;;;;;;;;;;;;9.54;100.00;98859.66;5041611;28;19916;-69
2021/11/21 00:26:49;;;;;;;;;;;;;;;9.73;100.00;98854.78;5041165;28;20018;-69
2021/11/21 00:29:14;;;;;;;;;;;;;;;9.90;100.00;98849.13;5041023;28;19916;-69
2021/11/21 00:31:40;;;;;;;;;;;;;;;9.83;100.00;98845.06;5021823;28;20481;-69
2021/11/21 00:34:05;;;;;;;;;;;;;;;9.92;100.00;98843.91;5040496;28;19921;-69
2021/11/21 00:36:30;;;;;;;;;;;;;;;9.98;100.00;98844.56;5041659;28;19912;-69
2021/11/21 00:38:56;;;;;;;;;;;;;;;9.06;100.00;98846.53;5041777;28;20000;-69
2021/11/21 00:41:22;;;;;;;;;;;;;;;9.37;100.00;98849.03;5040801;28;19913;-69
2021/11/21 00:43:48;;;;;;;;;;;;;;;9.28;100.00;98851.88;5041100;28;19916;-69
2021/11/21 00:46:14;;;;;;;;;;;;;;;9.32;100.00;98843.19;5021887;28;19921;-69
2021/11/21 00:48:39;;;;;;;;;;;;;;;9.72;100.00;98842.00;5041134;28;19916;-68
2021/11/21 00:51:05;;;;;;;;;;;;;;;9.77;100.00;98835.81;5040948;28;19967;-69
2021/11/21 00:53:31;;;;;;;;;;;;;;;9.32;100.00;98823.47;5016898;28;19972;-68
2021/11/21 00:56:04;;;;;;;;;;;;;;;9.70;100.00;98826.59;5005901;28;19922;-69
2021/11/21 00:58:30;;;;;;;;;;;;;;;9.62;100.00;98818.28;5008217;28;19925;-69
2021/11/21 01:00:55;;;;;;;;;;;;;;;9.31;100.00;98818.38;5006505;28;19925;-69
2021/11/21 01:03:22;;;;;;;;;;;;;;;9.20;100.00;98819.53;5011461;28;21106;-69
2021/11/21 01:05:47;;;;;;;;;;;;;;;9.21;100.00;98821.22;5008287;28;20383;-69
2021/11/21 01:08:13;;;;;;;;;;;;;;;9.61;100.00;98822.59;5005785;28;19913;-69
2021/11/21 01:10:38;;;;;;;;;;;;;;;9.37;100.00;98820.75;5004709;28;19968;-69
2021/11/21 01:13:04;;;;;;;;;;;;;;;9.64;100.00;98819.06;5003463;28;20008;-69
2021/11/21 01:15:29;;;;;;;;;;;;;;;9.42;100.00;98809.47;5001725;28;19980;-69
2021/11/21 01:17:55;;;;;;;;;;;;;;;9.45;100.00;98803.38;5008811;28;19921;-69
2021/11/21 01:20:21;;;;;;;;;;;;;;;9.49;100.00;98809.25;5005530;28;19925;-69
2021/11/21 01:22:47;;;;;;;;;;;;;;;9.60;100.00;98807.19;5003197;28;19922;-69
2021/11/21 01:25:12;;;;;;;;;;;;;;;9.82;100.00;98799.66;5004691;28;19913;-69
2021/11/21 01:27:38;;;;;;;;;;;;;;;9.98;100.00;98793.13;5006834;28;20384;-69
2021/11/21 01:30:04;;;;;;;;;;;;;;;9.55;100.00;98789.34;5002440;28;19917;-69
2021/11/21 01:32:30;;;;;;;;;;;;;;;9.76;100.00;98784.41;5006487;28;19929;-69
2021/11/21 01:34:55;;;;;;;;;;;;;;;9.88;100.00;98771.16;5000947;28;19944;-69
2021/11/21 01:37:21;;;;;;;;;;;;;;;9.87;100.00;98769.47;5006189;28;19913;-69
2021/11/21 01:39:46;;;;;;;;;;;;;;;9.35;100.00;98760.84;5003103;28;19968;-69
2021/11/21 01:42:11;;;;;;;;;;;;;;;9.71;100.00;98763.16;5006405;28;19921;-69
2021/11/21 01:44:37;;;;;;;;;;;;;;;8.92;100.00;98767.28;5008368;28;20411;-69
2021/11/21 01:47:06;;;;;;;;;;;;;;;9.42;100.00;98767.50;4991873;28;19931;-68
2021/11/21 01:49:32;;;;;;;;;;;;;;;9.40;100.00;98777.81;5003618;28;20388;-69
2021/11/21 01:51:57;;;;;;;;;;;;;;;9.12;100.00;98774.41;5009741;28;19964;-69
2021/11/21 01:54:23;;;;;;;;;;;;;;;9.25;100.00;98780.00;5039335;28;20283;-69
2021/11/21 01:56:48;;;;;;;;;;;;;;;9.49;100.00;98788.69;5031815;28;19928;-69
2021/11/21 01:59:15;;;;;;;;;;;;;;;9.25;100.00;98780.00;5017089;28;19917;-69
2021/11/21 02:01:40;;;;;;;;;;;;;;;9.62;100.00;98782.28;5036896;28;19924;-69
2021/11/21 02:04:05;;;;;;;;;;;;;;;9.70;100.00;98771.78;5038262;28;20311;-69
2021/11/21 02:06:32;;;;;;;;;;;;;;;9.76;100.00;98768.97;5039491;28;19924;-69
2021/11/21 02:08:58;;;;;;;;;;;;;;;9.57;100.00;98763.59;5018806;28;20307;-69
2021/11/21 02:11:24;;;;;;;;;;;;;;;9.41;100.00;98746.06;5039539;28;20023;-69
2021/11/21 02:13:50;;;;;;;;;;;;;;;9.40;100.00;98748.72;5038357;28;19938;-69
2021/11/21 02:16:19;;;;;;;;;;;;;;;9.20;100.00;98739.88;5016949;28;19921;-69
2021/11/21 02:18:47;;;;;;;;;;;;;;;8.66;100.00;98743.19;5034248;28;20454;-69
2021/11/21 02:21:13;;;;;;;;;;;;;;;9.26;100.00;98750.84;5017605;28;19927;-69
2021/11/21 02:23:40;;;;;;;;;;;;;;;9.60;100.00;98746.34;5020869;28;19998;-69
2021/11/21 02:26:05;;;;;;;;;;;;;;;8.69;100.00;98737.97;5018309;28;19917;-69
2021/11/21 02:28:31;;;;;;;;;;;;;;;8.84;100.00;98739.25;5030966;28;19921;-69
2021/11/21 02:30:56;;;;;;;;;;;;;;;8.34;100.00;98754.31;5034980;28;19920;-69
2021/11/21 02:33:22;;;;;;;;;;;;;;;8.61;100.00;98752.75;5013406;28;20000;-69
2021/11/21 02:35:49;;;;;;;;;;;;;;;9.01;100.00;98751.63;5036188;28;19927;-69
2021/11/21 02:38:16;;;;;;;;;;;;;;;9.24;100.00;98747.47;5039447;28;19916;-69
2021/11/21 02:40:41;;;;;;;;;;;;;;;9.16;100.00;98740.84;5019457;28;20025;-69
2021/11/21 02:43:06;;;;;;;;;;;;;;;8.79;100.00;98747.09;5037498;28;20404;-69
2021/11/21 02:45:32;;;;;;;;;;;;;;;8.03;100.00;98751.69;5038101;28;19917;-69
2021/11/21 02:47:57;;;;;;;;;;;;;;;8.23;100.00;98762.28;5038036;28;20004;-69
2021/11/21 02:50:23;;;;;;;;;;;;;;;8.22;100.00;98767.47;5036270;28;20050;-69
2021/11/21 02:52:49;;;;;;;;;;;;;;;8.82;100.00;98761.56;5024262;28;19925;-69
2021/11/21 02:55:14;;;;;;;;;;;;;;;8.49;100.00;98758.22;5003361;28;20027;-69
2021/11/21 02:57:40;;;;;;;;;;;;;;;8.53;100.00;98757.25;5003679;28;20023;-69
2021/11/21 03:00:06;;;;;;;;;;;;;;;8.31;100.00;98765.50;5004518;28;19964;-69
2021/11/21 03:02:32;;;;;;;;;;;;;;;8.52;100.00;98770.97;5003133;28;20282;-69
2021/11/21 03:04:57;;;;;;;;;;;;;;;8.30;100.00;98768.09;5004880;28;19928;-69
2021/11/21 03:07:23;;;;;;;;;;;;;;;8.37;100.00;98769.66;5002294;28;19964;-69
2021/11/21 03:09:51;;;;;;;;;;;;;;;8.47;100.00;98760.84;5000270;28;19928;-69
2021/11/21 03:12:21;;;;;;;;;;;;;;;8.56;100.00;98762.31;5001767;28;19925;-69
2021/11/21 03:14:46;;;;;;;;;;;;;;;8.10;100.00;98755.81;5004266;28;19917;-69
2021/11/21 03:17:11;;;;;;;;;;;;;;;7.99;100.00;98752.69;5005148;28;19968;-69
2021/11/21 03:19:37;;;;;;;;;;;;;;;8.33;100.00;98771.44;5003795;28;20032;-69
2021/11/21 03:22:03;;;;;;;;;;;;;;;8.25;100.00;98760.53;5003704;28;19943;-69
2021/11/21 03:24:28;;;;;;;;;;;;;;;7.93;100.00;98762.19;5002781;28;19925;-68
2021/11/21 03:26:53;;;;;;;;;;;;;;;8.13;100.00;98766.00;5005611;28;19923;-69
2021/11/21 03:29:19;;;;;;;;;;;;;;;8.10;100.00;98771.22;5007387;28;19917;-69
2021/11/21 03:31:44;;;;;;;;;;;;;;;8.02;100.00;98773.09;5004754;28;20013;-69
2021/11/21 03:34:10;;;;;;;;;;;;;;;7.58;100.00;98773.31;5004055;28;19956;-68
2021/11/21 03:36:37;;;;;;;;;;;;;;;8.11;100.00;98783.13;5005697;28;19928;-69
2021/11/21 03:39:03;;;;;;;;;;;;;;;8.05;100.00;98780.72;5001193;28;19932;-69
2021/11/21 03:41:28;;;;;;;;;;;;;;;7.84;100.00;98775.25;5001939;28;20000;-69
2021/11/21 03:43:54;;;;;;;;;;;;;;;8.00;100.00;98774.88;5006477;28;19920;-69
2021/11/21 03:46:20;;;;;;;;;;;;;;;8.45;100.00;98766.91;5002802;28;20385;-69
2021/11/21 03:48:46;;;;;;;;;;;;;;;8.18;100.00;98759.00;5006191;28;19921;-69
2021/11/21 03:51:12;;;;;;;;;;;;;;;8.29;100.00;98756.16;5005320;28;19928;-69
2021/11/21 03:53:37;;;;;;;;;;;;;;;8.04;100.00;98758.53;5012379;28;20012;-69
2021/11/21 03:56:03;;;;;;;;;;;;;;;8.20;100.00;98746.97;5017884;28;19917;-69
2021/11/21 03:58:28;;;;;;;;;;;;;;;8.37;100.00;98744.81;5017620;28;19923;-69
2021/11/21 04:00:53;;;;;;;;;;;;;;;8.36;100.00;98739.72;5016462;28;19940;-69
2021/11/21 04:03:19;;;;;;;;;;;;;;;8.58;100.00;98732.31;5015961;28;19921;-69
2021/11/21 04:05:45;;;;;;;;;;;;;;;8.48;100.00;98731.69;5017657;28;20296;-69
2021/11/21 04:08:10;;;;;;;;;;;;;;;8.44;100.00;98721.56;5016844;28;20498;-69
2021/11/21 04:10:36;;;;;;;;;;;;;;;8.23;100.00;98723.81;5020595;28;19931;-69
2021/11/21 04:13:01;;;;;;;;;;;;;;;8.38;100.00;98722.56;5021421;28;19952;-69
2021/11/21 04:15:27;;;;;;;;;;;;;;;7.90;100.00;98723.00;5019528;28;19925;-69
2021/11/21 04:17:52;;;;;;;;;;;;;;;8.40;100.00;98723.41;5019752;28;19935;-68
2021/11/21 04:20:18;;;;;;;;;;;;;;;8.34;100.00;98715.81;5019786;28;19975;-68
2021/11/21 04:22:43;;;;;;;;;;;;;;;8.19;100.00;98701.72;5019579;28;19928;-69
2021/11/21 04:25:09;;;;;;;;;;;;;;;8.24;100.00;98706.72;5017359;28;19927;-69
2021/11/21 04:27:34;;;;;;;;;;;;;;;8.21;100.00;98706.78;5018027;28;20646;-69
2021/11/21 04:30:00;;;;;;;;;;;;;;;7.94;100.00;98710.03;5015985;28;19921;-69
2021/11/21 04:32:25;;;;;;;;;;;;;;;8.18;100.00;98717.97;5019973;28;19980;-69
2021/11/21 04:34:51;;;;;;;;;;;;;;;8.47;100.00;98711.25;5019337;28;19932;-69
2021/11/21 04:37:17;;;;;;;;;;;;;;;8.48;100.00;98712.91;5019432;28;19925;-68
2021/11/21 04:39:42;;;;;;;;;;;;;;;8.71;100.00;98702.84;5017681;28;20400;-69
2021/11/21 04:42:08;;;;;;;;;;;;;;;8.25;100.00;98693.81;5019052;28;19928;-68
2021/11/21 04:44:33;;;;;;;;;;;;;;;8.22;100.00;98701.63;5021377;28;19956;-69
2021/11/21 04:46:58;;;;;;;;;;;;;;;8.54;100.00;98690.47;5020052;28;20368;-68
2021/11/21 04:49:24;;;;;;;;;;;;;;;8.42;100.00;98690.84;5020390;28;19921;-69
2021/11/21 04:51:49;;;;;;;;;;;;;;;7.49;100.00;98689.81;5020512;28;20556;-69
2021/11/21 04:54:17;;;;;;;;;;;;;;;8.24;100.00;98694.72;5000078;28;19952;-69
2021/11/21 04:56:45;;;;;;;;;;;;;;;7.95;100.00;98693.75;5001025;28;19995;-69
2021/11/21 04:59:10;;;;;;;;;;;;;;;8.35;100.00;98690.13;5000536;28;19960;-69
2021/11/21 05:01:35;;;;;;;;;;;;;;;8.51;100.00;98680.31;5000142;28;19951;-69
2021/11/21 05:04:00;;;;;;;;;;;;;;;8.00;100.00;98683.38;4998346;28;19932;-69
2021/11/21 05:06:26;;;;;;;;;;;;;;;7.92;100.00;98686.16;5000207;28;19928;-69
2021/11/21 05:08:51;;;;;;;;;;;;;;;7.92;100.00;98691.28;4999030;28;20372;-69
2021/11/21 05:11:17;;;;;;;;;;;;;;;8.01;100.00;98685.09;5000795;28;19929;-69
2021/11/21 05:13:42;;;;;;;;;;;;;;;8.04;100.00;98689.28;4999696;28;20388;-68
2021/11/21 05:16:07;;;;;;;;;;;;;;;8.36;100.00;98689.25;5000664;28;19917;-69
2021/11/21 05:18:33;;;;;;;;;;;;;;;8.11;100.00;98685.69;4995581;28;19937;-68
2021/11/21 05:20:58;;;;;;;;;;;;;;;8.45;100.00;98695.88;4982345;28;19964;-69
2021/11/21 05:23:23;;;;;;;;;;;;;;;8.44;100.00;98693.34;4981330;28;20008;-68
2021/11/21 05:25:49;;;;;;;;;;;;;;;8.46;100.00;98691.56;4999302;28;20032;-69
2021/11/21 05:28:14;;;;;;;;;;;;;;;7.99;100.00;98675.75;4982141;28;19924;-69
2021/11/21 05:30:40;;;;;;;;;;;;;;;7.89;100.00;98681.13;4982761;28;20008;-69
2021/11/21 05:33:06;;;;;;;;;;;;;;;8.23;100.00;98677.63;4999728;28;19922;-68
2021/11/21 05:35:31;;;;;;;;;;;;;;;7.93;100.00;98672.44;4982848;28;19925;-69
2021/11/21 05:37:57;;;;;;;;;;;;;;;7.87;100.00;98677.75;4998382;28;20297;-69
2021/11/21 05:40:22;;;;;;;;;;;;;;;8.08;100.00;98680.63;4981079;28;20450;-69
2021/11/21 05:42:48;;;;;;;;;;;;;;;8.07;100.00;98668.69;4981844;28;19924;-69
2021/11/21 05:45:14;;;;;;;;;;;;;;;7.90;100.00;98667.41;5000697;28;19959;-68
2021/11/21 05:47:41;;;;;;;;;;;;;;;8.06;100.00;98664.44;4981472;28;19925;-69
2021/11/21 05:50:12;;;;;;;;;;;;;;;8.42;100.00;98659.22;4998975;28;19929;-69
2021/11/21 05:52:37;;;;;;;;;;;;;;;8.38;100.00;98654.13;4994049;28;20019;-69
2021/11/21 05:55:02;;;;;;;;;;;;;;;8.08;100.00;98652.44;5036666;28;20031;-69
2021/11/21 05:57:28;;;;;;;;;;;;;;;7.84;100.00;98647.06;5039846;28;19916;-69
2021/11/21 05:59:53;;;;;;;;;;;;;;;7.96;100.00;98657.00;5038459;28;20271;-69
2021/11/21 06:02:19;;;;;;;;;;;;;;;8.03;100.00;98646.56;5021177;28;20009;-68
2021/11/21 06:04:44;;;;;;;;;;;;;;;8.16;100.00;98643.66;5038155;28;19924;-68
2021/11/21 06:07:10;;;;;;;;;;;;;;;8.09;100.00;98633.56;5038802;28;19925;-69
2021/11/21 06:09:35;;;;;;;;;;;;;;;8.23;100.00;98639.16;5034391;28;19983;-68
2021/11/21 06:12:01;;;;;;;;;;;;;;;8.41;100.00;98629.28;5037374;28;19917;-69
2021/11/21 06:14:27;;;;;;;;;;;;;;;8.14;100.00;98621.47;5039037;28;20011;-69
2021/11/21 06:16:52;;;;;;;;;;;;;;;8.30;100.00;98624.44;5038129;28;19916;-69
2021/11/21 06:19:18;;;;;;;;;;;;;;;8.23;100.00;98618.63;5038015;28;19921;-69
2021/11/21 06:21:43;;;;;;;;;;;;;;;7.84;100.00;98621.41;5038421;28;20012;-69
2021/11/21 06:24:08;;;;;;;;;;;;;;;7.96;100.00;98620.28;5039141;28;19920;-69
2021/11/21 06:26:34;;;;;;;;;;;;;;;8.09;100.00;98625.88;5037764;28;19921;-69
2021/11/21 06:28:59;;;;;;;;;;;;;;;7.88;100.00;98633.28;5038354;28;19932;-69
2021/11/21 06:31:25;;;;;;;;;;;;;;;7.78;100.00;98637.00;5020918;28;19966;-69
2021/11/21 06:33:50;;;;;;;;;;;;;;;7.62;100.00;98649.38;5038176;28;19917;-69
2021/11/21 06:36:18;;;;;;;;;;;;;;;8.05;100.00;98655.91;5037533;28;19929;-69
2021/11/21 06:38:44;;;;;;;;;;;;;;;7.81;100.00;98659.97;5038620;28;20384;-69
2021/11/21 06:41:09;;;;;;;;;;;;;;;8.08;100.00;98645.56;5036854;28;19925;-68
2021/11/21 06:43:35;;;;;;;;;;;;;;;8.62;100.00;98645.78;5037784;28;19923;-69
2021/11/21 06:46:00;;;;;;;;;;;;;;;8.11;100.00;98634.38;5036612;28;19932;-68
2021/11/21 06:48:25;;;;;;;;;;;;;;;8.32;100.00;98630.34;5038946;28;19920;-69
2021/11/21 06:50:53;;;;;;;;;;;;;;;8.16;100.00;98625.69;5037646;28;19920;-68
2021/11/21 06:53:19;;;;;;;;;;;;;;;8.41;100.00;98621.59;5015721;28;20512;-69
2021/11/21 06:55:44;;;;;;;;;;;;;;;8.77;100.00;98620.47;5016900;28;19920;-69
2021/11/21 06:58:10;;;;;;;;;;;;;;;7.88;100.00;98606.81;5016777;28;19948;-69
2021/11/21 07:00:35;;;;;;;;;;;;;;;8.29;100.00;98618.47;5030075;28;19921;-69
2021/11/21 07:03:00;;;;;;;;;;;;;;;8.56;100.00;98600.63;5015011;28;19921;-68
2021/11/21 07:05:26;;;;;;;;;;;;;;;8.04;100.00;98592.66;5017810;28;19975;-69
2021/11/21 07:07:51;;;;;;;;;;;;;;;7.80;100.00;98599.34;5016011;28;20031;-69
2021/11/21 07:10:17;;;;;;;;;;;;;;;8.06;100.00;98610.59;5015636;28;20426;-68
2021/11/21 07:12:42;;;;;;;;;;;;;;;7.89;100.00;98618.72;5015995;28;20384;-68
2021/11/21 07:15:08;;;;;;;;;;;;;;;8.18;100.00;98620.50;5017285;28;19921;-69
2021/11/21 07:17:33;;;;;;;;;;;;;;;8.32;100.00;98620.94;5015275;28;20016;-69
2021/11/21 07:19:59;;;;;;;;;;;;;;;8.23;100.00;98623.75;5017002;28;20211;-68
2021/11/21 07:22:24;;;;;;;;;;;;;;;8.24;100.00;98625.47;5017825;28;19924;-68
2021/11/21 07:24:49;;;;;;;;;;;;;;;7.92;100.00;98626.34;5015260;28;19932;-68
2021/11/21 07:27:14;;;;;;;;;;;;;;;8.67;100.00;98634.50;5015929;28;19932;-69
2021/11/21 07:29:40;;;;;;;;;;;;;;;8.52;100.00;98620.38;5015759;28;19917;-69
2021/11/21 07:32:06;;;;;;;;;;;;;;;8.24;100.00;98614.38;5017772;28;19917;-70
2021/11/21 07:34:32;;;;;;;;;;;;;;;8.38;100.00;98613.06;5014945;28;19925;-68
2021/11/21 07:36:57;;;;;;;;;;;;;;;8.05;100.00;98624.28;5017679;28;20004;-68
2021/11/21 07:39:22;;;;;;;;;;;;;;;8.10;100.00;98633.53;5016529;28;19992;-70
2021/11/21 07:41:48;;;;;;;;;;;;;;;7.41;100.00;98635.38;5016452;28;19917;-69
2021/11/21 07:44:13;;;;;;;;;;;;;;;7.56;100.00;98641.00;5020664;28;20611;-70
2021/11/21 07:46:39;;;;;;;;;;;;;;;7.59;100.00;98657.09;5020826;28;19925;-69
2021/11/21 07:49:04;;;;;;;;;;;;;;;7.76;100.00;98664.38;5014877;28;19921;-68
2021/11/21 07:51:30;;;;;;;;;;;;;;;8.03;100.00;98672.19;5020001;28;19925;-68
2021/11/21 07:53:55;;;;;;;;;;;;;;;8.07;100.00;98673.81;5020629;28;19936;-69
2021/11/21 07:56:21;;;;;;;;;;;;;;;7.77;100.00;98676.31;5019567;28;19921;-69
2021/11/21 07:58:46;;;;;;;;;;;;;;;8.22;100.00;98678.53;5020092;28;20348;-69
2021/11/21 08:01:12;;;;;;;;;;;;;;;8.13;100.00;98674.50;5019558;28;19921;-69
2021/11/21 08:03:37;;;;;;;;;;;;;;;8.21;100.00;98665.72;5018398;28;19966;-69
2021/11/21 08:06:02;;;;;;;;;;;;;;;8.49;100.00;98668.41;5020848;28;19917;-69
2021/11/21 08:08:28;;;;;;;;;;;;;;;8.43;100.00;98673.72;5020071;28;19988;-67
2021/11/21 08:10:53;;;;;;;;;;;;;;;8.95;100.00;98664.47;5019479;28;20351;-68
2021/11/21 08:13:18;;;;;;;;;;;;;;;8.56;100.00;98662.22;5020179;28;19920;-68
2021/11/21 08:15:46;;;;;;;;;;;;;;;8.42;100.00;98654.09;5021109;28;19925;-68
2021/11/21 08:18:12;;;;;;;;;;;;;;;8.21;100.00;98652.91;5019800;28;20368;-68
2021/11/21 08:20:37;;;;;;;;;;;;;;;8.61;100.00;98655.22;5017921;28;19975;-68
2021/11/21 08:23:03;;;;;;;;;;;;;;;8.50;100.00;98652.13;5020078;28;20280;-68
2021/11/21 08:25:28;;;;;;;;;;;;;;;8.14;100.00;98652.22;5018886;28;19928;-68
2021/11/21 08:27:53;;;;;;;;;;;;;;;8.40;100.00;98650.69;5018915;28;19921;-68
2021/11/21 08:30:20;;;;;;;;;;;;;;;7.90;100.00;98657.16;5020357;28;19932;-68
2021/11/21 08:32:45;;;;;;;;;;;;;;;7.81;100.00;98662.53;5016976;28;19953;-68
2021/11/21 08:35:11;;;;;;;;;;;;;;;7.77;100.00;98673.75;5018222;28;21131;-67
2021/11/21 08:37:36;;;;;;;;;;;;;;;7.94;100.00;98673.31;5020023;28;19926;-68
2021/11/21 08:40:02;;;;;;;;;;;;;;;8.10;100.00;98671.19;5017720;28;19925;-69
2021/11/21 08:42:28;;;;;;;;;;;;;;;7.74;100.00;98671.25;5019138;28;19921;-68
2021/11/21 08:44:53;;;;;;;;;;;;;;;7.69;100.00;98679.06;5020436;28;20625;-68
2021/11/21 08:47:19;;;;;;;;;;;;;;;7.78;100.00;98683.13;5018437;28;20284;-67
2021/11/21 08:49:44;;;;;;;;;;;;;;;7.83;100.00;98683.84;5019100;28;19971;-68
2021/11/21 08:52:10;;;;;;;;;;;;;;;7.60;100.00;98689.56;5018914;28;19932;-68
2021/11/21 08:54:35;;;;;;;;;;;;;;;7.77;100.00;98696.81;5006931;28;19929;-68
2021/11/21 08:57:04;;;;;;;;;;;;;;;7.69;100.00;98701.31;5004307;28;19921;-68
2021/11/21 08:59:29;;;;;;;;;;;;;;;7.94;100.00;98694.66;5007794;28;19965;-68
2021/11/21 09:04:57;;;;;;;;;;;;;;;7.56;100.00;98707.59;5008822;28;20283;-68
2021/11/21 09:07:24;;;;;;;;;;;;;;;7.63;100.00;98714.25;5003053;28;19921;-68
2021/11/21 09:09:51;;;;;;;;;;;;;;;7.51;100.00;98723.09;5000737;28;19984;-68
2021/11/21 09:12:17;;;;;;;;;;;;;;;7.59;100.00;98733.97;5004850;28;20038;-68
2021/11/21 09:14:42;;;;;;;;;;;;;;;7.56;100.00;98738.38;5003566;28;19964;-69
2021/11/21 09:17:07;;;;;;;;;;;;;;;7.66;100.00;98739.81;5006379;28;19928;-69
2021/11/21 09:19:33;;;;;;;;;;;;;;;7.32;100.00;98743.16;5002824;28;20396;-68
2021/11/21 09:21:58;;;;;;;;;;;;;;;7.64;97.68;98746.69;5013669;28;19917;-68
2021/11/21 09:24:26;;;;;;;;;;;;;;;7.75;96.88;98743.00;5005670;28;20046;-68
2021/11/21 09:26:51;;;;;;;;;;;;;;;7.73;97.15;98751.59;5003067;28;20388;-68
2021/11/21 09:29:17;;;;;;;;;;;;;;;7.57;97.56;98755.41;5001637;28;20065;-68
2021/11/21 09:31:43;;;;;;;;;;;;;;;7.92;96.94;98749.44;5004457;28;19963;-68
2021/11/21 09:34:10;;;;;;;;;;;;;;;7.79;97.90;98751.44;5008321;28;19972;-67
2021/11/21 09:36:36;;;;;;;;;;;;;;;8.01;96.78;98748.38;5006474;28;19928;-68
2021/11/21 09:39:02;;;;;;;;;;;;;;;7.58;97.61;98751.97;5004108;28;21386;-68
2021/11/21 09:41:29;;;;;;;;;;;;;;;7.68;95.70;98753.44;5002575;28;19921;-67
2021/11/21 09:43:54;;;;;;;;;;;;;;;7.70;94.77;98755.06;5003327;28;19975;-68
2021/11/21 09:46:19;;;;;;;;;;;;;;;7.52;94.75;98764.03;5006686;28;19929;-68
2021/11/21 09:48:45;;;;;;;;;;;;;;;7.42;93.13;98767.72;5006935;28;19928;-68
2021/11/21 09:51:11;;;;;;;;;;;;;;;7.63;92.35;98775.78;5004335;28;19936;-68
2021/11/21 09:53:36;;;;;;;;;;;;;;;7.75;91.52;98775.47;4998971;28;21146;-68
2021/11/21 09:56:02;;;;;;;;;;;;;;;7.66;91.48;98775.69;4995672;28;19969;-68
2021/11/21 09:58:27;;;;;;;;;;;;;;;7.43;91.12;98779.63;4995184;28;20409;-68
2021/11/21 10:00:53;;;;;;;;;;;;;;;7.64;89.68;98775.75;4999317;28;20416;-68
2021/11/21 10:03:18;;;;;;;;;;;;;;;7.51;90.27;98782.03;4993338;28;19924;-68
2021/11/21 10:05:49;;;;;;;;;;;;;;;7.49;89.20;98787.19;4976538;28;19921;-67
2021/11/21 10:08:24;;;;;;;;;;;;;;;7.55;88.75;98783.66;4976410;28;19948;-68
2021/11/21 10:10:54;;;;;;;;;;;;;;;7.73;88.31;98782.34;4990946;28;19921;-68
2021/11/21 10:13:37;;;;;;;;;;;;;;;7.67;87.97;98785.91;4973760;28;20286;-67
2021/11/21 10:16:17;;;;;;;;;;;;;;;7.40;88.91;98781.44;4997007;28;19921;-68
2021/11/21 10:18:46;;;;;;;;;;;;;;;7.69;87.07;98791.84;4996405;28;19975;-68
2021/11/21 10:21:11;;;;;;;;;;;;;;;7.79;87.32;98789.06;4996183;28;19948;-68
2021/11/21 10:23:38;;;;;;;;;;;;;;;7.79;87.11;98789.91;4994863;28;20656;-68
2021/11/21 10:26:05;;;;;;;;;;;;;;;7.86;85.76;98788.03;4991308;28;19944;-69
2021/11/21 10:28:32;;;;;;;;;;;;;;;7.93;85.56;98779.31;4995660;28;20653;-69
2021/11/21 10:31:04;;;;;;;;;;;;;;;7.76;86.01;98779.72;4977210;28;19925;-69
2021/11/21 10:33:29;;;;;;;;;;;;;;;7.65;85.11;98786.84;4996724;28;20483;-69
2021/11/21 10:35:57;;;;;;;;;;;;;;;7.80;83.54;98794.16;4991270;28;19925;-68
2021/11/21 10:38:43;;;;;;;;;;;;;;;7.76;83.72;98772.03;4996626;28;20008;-69
2021/11/21 10:41:10;;;;;;;;;;;;;;;7.69;83.91;98781.59;4937074;28;19918;-68
2021/11/21 10:43:55;;;;;;;;;;;;;;;7.89;82.98;98781.13;4950388;28;19922;-68
2021/11/21 10:46:38;;;;;;;;;;;;;;;7.87;83.53;98780.31;4960822;28;19950;-68
2021/11/21 10:49:30;;;;;;;;;;;;;;;7.61;83.11;98787.78;4965427;28;19926;-68
2021/11/21 10:52:28;;;;;;;;;;;;;;;7.71;83.38;98784.13;4965327;28;19925;-68
2021/11/21 10:58:20;;;;;;;;;;;;;;;7.91;82.94;98776.81;4963074;28;19929;-68
2021/11/21 11:01:06;;;;;;;;;;;;;;;7.94;82.51;98769.03;4963703;28;19921;-68
2021/11/21 11:03:34;;;;;;;;;;;;;;;7.75;83.08;98776.34;4961971;28;19918;-68
2021/11/21 11:06:07;;;;;;;;;;;;;;;7.81;82.58;98777.91;4960377;28;19925;-68
2021/11/21 11:08:36;;;;;;;;;;;;;;;8.07;81.14;98776.41;4965116;28;19968;-68
2021/11/21 11:11:03;;;;;;;;;;;;;;;8.14;82.04;98771.09;4963427;28;20464;-68
2021/11/21 11:13:36;;;;;;;;;;;;;;;7.94;81.89;98771.59;4998991;28;19921;-68
2021/11/21 11:16:02;;;;;;;;;;;;;;;7.81;81.34;98770.19;4998103;28;20479;-69
2021/11/21 11:24:55;;;;;;;;;;;;;;;7.97;80.83;98765.53;5023120;28;19966;-68
2021/11/21 11:27:35;;;;;;;;;;;;;;;8.05;80.25;98767.91;5013929;28;19924;-69
2021/11/21 11:30:01;;;;;;;;;;;;;;;8.13;79.85;98768.56;5013568;28;19917;-70
2021/11/21 11:32:37;;;;;;;;;;;;;;;7.82;81.13;98766.75;4995709;28;19920;-67
2021/11/21 11:35:09;;;;;;;;;;;;;;;7.94;80.10;98760.50;5013384;28;19922;-69
2021/11/21 11:37:40;;;;;;;;;;;;;;;8.02;80.57;98760.28;4995724;28;20320;-70
2021/11/21 11:40:06;;;;;;;;;;;;;;;8.12;80.10;98757.47;4995403;28;20447;-68
2021/11/21 11:42:44;;;;;;;;;;;;;;;8.09;80.37;98759.25;4994610;28;20016;-70
2021/11/21 11:45:10;;;;;;;;;;;;;;;7.91;80.73;98763.97;5012651;28;20301;-69
2021/11/21 11:47:42;;;;;;;;;;;;;;;7.92;79.53;98754.56;4995082;28;19913;-70
2021/11/21 11:50:07;;;;;;;;;;;;;;;8.23;77.62;98766.59;5011753;28;20779;-69
2021/11/21 11:52:54;;;;;;;;;;;;;;;8.07;78.08;98763.56;5013476;28;20012;-72
2021/11/21 11:55:20;;;;;;;;;;;;;;;8.15;78.36;98762.50;5030211;28;20558;-70
2021/11/21 11:57:46;;;;;;;;;;;;;;;8.36;77.41;98760.25;5013308;28;19917;-69
2021/11/21 12:00:27;;;;;;;;;;;;;;;8.43;78.78;98758.38;5030421;28;19913;-69
2021/11/21 12:03:12;;;;;;;;;;;;;;;8.20;78.88;98752.13;5031911;28;20455;-69
2021/11/21 12:05:46;;;;;;;;;;;;;;;8.36;78.24;98752.56;5029989;28;19933;-68
2021/11/21 12:08:18;;;;;;;;;;;;;;;8.35;78.67;98751.72;5032096;28;19952;-69
2021/11/21 12:10:45;;;;;;;;;;;;;;;8.45;79.41;98746.38;5010782;28;19971;-66
2021/11/21 12:13:10;;;;;;;;;;;;;;;8.31;81.55;98736.44;5031982;28;19932;-68
2021/11/21 12:15:45;;;;;;;;;;;;;;;8.44;82.43;98729.28;5014484;28;19917;-68
2021/11/21 12:18:12;;;;;;;;;;;;;;;8.14;82.46;98726.63;5014061;28;19927;-68
2021/11/21 12:20:40;;;;;;;;;;;;;;;8.19;82.60;98722.22;5029147;28;19913;-69
2021/11/21 12:23:06;;;;;;;;;;;;;;;8.40;81.25;98719.97;5014592;28;20376;-69
2021/11/21 12:25:31;;;;;;;;;;;;;;;8.37;82.44;98719.16;5031704;28;19920;-69
2021/11/21 12:28:00;;;;;;;;;;;;;;;8.22;83.91;98716.16;5031469;28;19916;-70
2021/11/21 12:30:29;;;;;;;;;;;;;;;8.14;83.82;98711.22;5031371;28;20900;-70
2021/11/21 12:32:59;;;;;;;;;;;;;;;8.19;83.19;98709.41;4997140;28;19917;-69
2021/11/21 12:35:30;;;;;;;;;;;;;;;8.19;82.24;98711.97;5031726;28;20003;-70
2021/11/21 12:37:59;;;;;;;;;;;;;;;8.31;81.38;98710.78;5030946;28;20364;-69
2021/11/21 12:40:29;;;;;;;;;;;;;;;8.32;82.64;98704.75;5031648;28;19999;-69
2021/11/21 12:42:59;;;;;;;;;;;;;;;8.18;83.00;98702.56;5030778;28;19971;-69
2021/11/21 12:45:25;;;;;;;;;;;;;;;8.54;81.21;98705.03;5025747;28;20451;-70
2021/11/21 12:47:55;;;;;;;;;;;;;;;8.30;82.86;98697.13;5031486;28;19917;-70
2021/11/21 12:50:21;;;;;;;;;;;;;;;8.51;82.06;98694.88;5013854;28;19917;-70
2021/11/21 12:53:08;;;;;;;;;;;;;;;8.21;85.97;98687.13;5028637;28;19983;-69
2021/11/21 12:55:40;;;;;;;;;;;;;;;8.34;87.88;98673.03;5031334;28;19951;-70
2021/11/21 12:58:06;;;;;;;;;;;;;;;8.35;88.61;98673.91;5031207;28;19913;-70
2021/11/21 13:00:33;;;;;;;;;;;;;;;8.33;92.58;98668.81;5031553;28;19917;-70
2021/11/21 13:03:07;;;;;;;;;;;;;;;8.52;95.07;98650.34;5031530;28;19921;-69